createdAt,value
2022-08-02T00:00:10.169Z,7.90
2022-08-02T00:02:37.486Z,9.50
2022-08-02T00:05:05.087Z,8.20
2022-08-02T00:07:32.794Z,7.60
2022-08-02T00:10:01.118Z,10.00
2022-08-02T00:12:27.891Z,7.90
2022-08-02T00:14:54.660Z,8.80
2022-08-02T00:17:21.402Z,11.30
2022-08-02T00:19:48.162Z,6.90
2022-08-02T00:22:15.149Z,13.60
2022-08-02T00:24:42.132Z,9.00
2022-08-02T00:27:09.658Z,9.20
2022-08-02T00:29:51.960Z,8.80
2022-08-02T00:32:21.831Z,7.80
2022-08-02T00:34:48.638Z,7.20
2022-08-02T00:37:15.409Z,11.40
2022-08-02T00:39:42.969Z,9.20
2022-08-02T00:42:10.196Z,8.80
2022-08-02T00:44:37.226Z,10.50
2022-08-02T00:47:04.054Z,7.70
2022-08-02T00:49:30.949Z,9.30
2022-08-02T00:52:00.552Z,13.50
2022-08-02T00:54:27.535Z,11.20
2022-08-02T00:56:54.628Z,11.20
2022-08-02T01:01:57.660Z,15.10
2022-08-02T01:04:26.732Z,8.50
2022-08-02T01:06:57.562Z,10.10
2022-08-02T01:09:24.278Z,10.90
2022-08-02T01:11:51.028Z,13.40
2022-08-02T01:14:17.872Z,9.60
2022-08-02T01:16:54.018Z,11.50
2022-08-02T01:19:26.530Z,8.60
2022-08-02T01:22:18.129Z,9.70
2022-08-02T01:25:10.789Z,15.80
2022-08-02T01:27:43.670Z,11.10
2022-08-02T01:30:10.452Z,8.10
2022-08-02T01:32:40.181Z,11.20
2022-08-02T01:35:12.076Z,9.60
2022-08-02T01:37:47.711Z,13.20
2022-08-02T01:40:16.846Z,8.50
2022-08-02T01:42:46.301Z,12.40
2022-08-02T01:45:13.136Z,12.20
2022-08-02T01:47:40.330Z,9.90
2022-08-02T01:50:07.685Z,12.60
2022-08-02T01:52:37.821Z,10.20
2022-08-02T01:55:06.462Z,9.20
2022-08-02T01:57:53.039Z,10.80
2022-08-02T02:00:20.271Z,12.70
2022-08-02T02:02:47.964Z,8.50
2022-08-02T02:05:16.044Z,10.50
2022-08-02T02:07:43.230Z,14.30
2022-08-02T02:10:12.304Z,10.50
2022-08-02T02:12:39.732Z,16.80
2022-08-02T02:15:08.293Z,10.50
2022-08-02T02:18:11.579Z,10.00
2022-08-02T02:20:21.737Z,13.10
2022-08-02T02:22:49.858Z,12.00
2022-08-02T02:25:18.536Z,10.80
2022-08-02T02:28:05.409Z,14.40
2022-08-02T02:30:32.694Z,12.90
2022-08-02T02:33:01.404Z,12.70
2022-08-02T02:35:29.742Z,12.20
2022-08-02T02:37:56.490Z,10.20
2022-08-02T02:40:24.132Z,15.80
2022-08-02T02:42:51.379Z,13.20
2022-08-02T02:45:18.981Z,11.80
2022-08-02T02:47:46.248Z,8.90
2022-08-02T02:50:13.106Z,10.60
2022-08-02T02:52:40.281Z,11.20
2022-08-02T02:55:08.279Z,11.50
2022-08-02T02:57:35.748Z,13.80
2022-08-02T03:00:05.146Z,13.30
2022-08-02T03:02:31.892Z,11.50
2022-08-02T03:04:58.733Z,12.30
2022-08-02T03:07:26.321Z,11.60
2022-08-02T03:09:53.894Z,15.30
2022-08-02T03:12:30.523Z,17.90
2022-08-02T03:15:00.046Z,10.70
2022-08-02T03:17:26.827Z,16.70
2022-08-02T03:19:53.613Z,12.30
2022-08-02T03:22:20.350Z,10.30
2022-08-02T03:24:47.114Z,12.10
2022-08-02T03:27:13.838Z,10.70
2022-08-02T03:29:40.589Z,11.90
2022-08-02T03:32:07.314Z,13.80
2022-08-02T03:34:34.104Z,13.40
2022-08-02T03:37:00.864Z,14.20
2022-08-02T03:39:27.638Z,11.20
2022-08-02T03:41:54.661Z,13.00
2022-08-02T03:44:21.462Z,9.90
2022-08-02T03:46:48.200Z,12.30
2022-08-02T03:49:15.027Z,10.40
2022-08-02T03:51:41.795Z,11.90
2022-08-02T03:54:08.528Z,12.30
2022-08-02T03:56:35.291Z,9.60
2022-08-02T03:59:09.057Z,9.30
2022-08-02T04:01:35.785Z,9.30
2022-08-02T04:04:02.543Z,11.50
2022-08-02T04:06:29.292Z,8.30
2022-08-02T04:08:56.039Z,9.90
2022-08-02T04:11:31.907Z,9.80
2022-08-02T04:14:03.287Z,9.20
2022-08-02T04:16:43.235Z,9.70
2022-08-02T04:19:14.631Z,8.60
2022-08-02T04:21:50.099Z,8.10
2022-08-02T04:24:20.830Z,11.20
2022-08-02T04:26:53.114Z,12.60
2022-08-02T04:29:20.029Z,9.30
2022-08-02T04:31:46.780Z,9.50
2022-08-02T04:34:15.467Z,10.20
2022-08-02T04:36:43.168Z,11.70
2022-08-02T04:39:10.163Z,12.40
2022-08-02T04:41:44.542Z,20.00
2022-08-02T04:44:12.241Z,7.70
2022-08-02T04:46:39.510Z,9.80
2022-08-02T04:49:06.591Z,8.80
2022-08-02T04:51:37.740Z,8.40
2022-08-02T04:54:09.585Z,7.70
2022-08-02T04:56:38.081Z,10.60
2022-08-02T04:59:05.309Z,8.20
2022-08-02T05:01:32.399Z,8.10
2022-08-02T05:03:59.356Z,7.30
2022-08-02T05:06:26.131Z,6.60
2022-08-02T05:08:53.642Z,6.00
2022-08-02T05:11:22.108Z,4.70
2022-08-02T05:13:57.678Z,9.50
2022-08-02T05:16:31.476Z,9.00
2022-08-02T05:19:00.138Z,8.10
2022-08-02T05:21:27.025Z,9.00
2022-08-02T05:23:53.795Z,6.20
2022-08-02T05:26:20.558Z,8.80
2022-08-02T05:28:47.300Z,6.30
2022-08-02T05:31:14.088Z,10.60
2022-08-02T05:33:40.861Z,10.50
2022-08-02T05:36:09.444Z,6.30
2022-08-02T05:38:37.613Z,5.10
2022-08-02T05:41:07.902Z,7.40
2022-08-02T05:43:34.692Z,7.50
2022-08-02T05:46:01.496Z,8.00
2022-08-02T05:48:31.845Z,7.50
2022-08-02T05:51:04.102Z,6.50
2022-08-02T05:53:36.450Z,6.50
2022-08-02T05:56:18.766Z,7.90
2022-08-02T05:59:04.643Z,8.10
2022-08-02T06:01:37.910Z,8.90
2022-08-02T06:04:06.563Z,5.70
2022-08-02T06:06:33.478Z,6.70
2022-08-02T06:09:09.059Z,8.00
2022-08-02T06:11:37.267Z,6.00
2022-08-02T06:14:05.441Z,10.80
2022-08-02T06:16:33.033Z,7.60
2022-08-02T06:19:08.931Z,10.40
2022-08-02T06:22:35.417Z,12.30
2022-08-02T06:24:22.407Z,7.30
2022-08-02T06:26:52.737Z,9.60
2022-08-02T06:29:20.800Z,9.90
2022-08-02T06:31:51.099Z,10.40
2022-08-02T06:34:17.863Z,8.70
2022-08-02T06:36:52.171Z,9.80
2022-08-02T06:39:37.627Z,9.80
2022-08-02T06:42:07.675Z,10.60
2022-08-02T06:44:47.987Z,10.00
2022-08-02T06:47:16.612Z,8.20
2022-08-02T06:49:51.681Z,10.70
2022-08-02T06:52:27.110Z,9.20
2022-08-02T06:54:56.467Z,15.30
2022-08-02T06:57:23.286Z,13.90
2022-08-02T06:59:50.025Z,20.60
2022-08-02T07:02:16.864Z,21.70
2022-08-02T07:04:43.613Z,30.30
2022-08-02T07:07:10.354Z,14.70
2022-08-02T07:09:37.114Z,15.00
2022-08-02T07:12:04.411Z,18.60
2022-08-02T07:14:31.365Z,28.50
2022-08-02T07:16:59.510Z,27.90
2022-08-02T07:19:31.910Z,24.40
2022-08-02T07:22:05.411Z,20.80
2022-08-02T07:24:32.233Z,28.00
2022-08-02T07:27:11.346Z,30.20
2022-08-02T07:29:45.974Z,31.50
2022-08-02T07:32:25.525Z,20.30
2022-08-02T07:34:55.014Z,19.80
2022-08-02T07:37:55.692Z,21.40
2022-08-02T07:40:19.602Z,21.30
2022-08-02T07:43:05.533Z,17.60
2022-08-02T07:45:32.778Z,16.60
2022-08-02T07:48:02.661Z,8.60
2022-08-02T07:50:30.057Z,9.70
2022-08-02T07:52:57.781Z,10.20
2022-08-02T07:55:39.405Z,12.90
2022-08-02T07:58:11.492Z,10.80
2022-08-02T08:00:40.720Z,10.30
2022-08-02T08:03:07.575Z,16.10
2022-08-02T08:05:34.374Z,13.40
2022-08-02T08:08:01.227Z,9.40
2022-08-02T08:10:28.203Z,10.40
2022-08-02T08:12:55.319Z,11.60
2022-08-02T08:15:22.143Z,8.80
2022-08-02T08:17:49.145Z,14.50
2022-08-02T08:20:16.169Z,12.00
2022-08-02T08:22:42.966Z,11.80
2022-08-02T08:25:12.683Z,9.10
2022-08-02T08:27:52.012Z,10.10
2022-08-02T08:30:19.595Z,14.90
2022-08-02T08:32:46.374Z,12.00
2022-08-02T08:35:13.874Z,11.10
2022-08-02T08:37:40.639Z,13.40
2022-08-02T08:40:09.242Z,12.00
2022-08-02T08:42:37.231Z,13.50
2022-08-02T08:45:04.351Z,10.90
2022-08-02T08:47:35.028Z,11.40
2022-08-02T08:50:03.788Z,11.40
2022-08-02T08:52:30.528Z,10.20
2022-08-02T08:54:57.260Z,12.50
2022-08-02T08:57:26.248Z,10.90
2022-08-02T08:59:53.037Z,10.30
2022-08-02T09:02:24.753Z,9.90
2022-08-02T09:04:55.469Z,13.30
2022-08-02T09:07:23.334Z,16.30
2022-08-02T09:09:50.121Z,15.60
2022-08-02T09:12:17.871Z,10.50
2022-08-02T09:14:49.903Z,8.70
2022-08-02T09:17:17.208Z,12.00
2022-08-02T09:19:45.890Z,9.80
2022-08-02T09:22:14.798Z,13.10
2022-08-02T09:24:47.240Z,11.10
2022-08-02T09:27:16.079Z,12.70
2022-08-02T09:30:11.476Z,12.60
2022-08-02T09:32:45.221Z,11.60
2022-08-02T09:35:12.014Z,9.20
2022-08-02T09:37:38.793Z,7.50
2022-08-02T09:40:07.013Z,11.40
2022-08-02T09:42:34.605Z,8.10
2022-08-02T09:45:02.128Z,10.70
2022-08-02T09:47:31.041Z,9.00
2022-08-02T09:49:58.515Z,15.90
2022-08-02T09:52:37.440Z,9.70
2022-08-02T09:55:11.437Z,10.10
2022-08-02T09:57:38.609Z,10.10
2022-08-02T10:00:14.937Z,15.60
2022-08-02T10:03:34.887Z,10.10
2022-08-02T10:06:03.057Z,12.10
2022-08-02T10:08:32.910Z,9.80
2022-08-02T10:11:00.885Z,8.80
2022-08-02T10:13:31.839Z,12.80
2022-08-02T10:15:58.717Z,15.40
2022-08-02T10:18:38.106Z,11.70
2022-08-02T10:21:40.937Z,8.70
2022-08-02T10:24:12.178Z,11.80
2022-08-02T10:26:43.488Z,10.60
2022-08-02T10:29:10.468Z,9.20
2022-08-02T10:31:41.914Z,9.10
2022-08-02T10:34:11.769Z,8.00
2022-08-02T10:36:40.171Z,7.80
2022-08-02T10:39:07.133Z,7.80
2022-08-02T10:41:52.661Z,9.50
2022-08-02T10:44:24.038Z,8.10
2022-08-02T10:46:52.144Z,9.80
2022-08-02T10:52:07.491Z,8.40
2022-08-02T10:54:42.304Z,7.10
2022-08-02T10:57:22.351Z,10.00
2022-08-02T10:59:50.640Z,10.40
2022-08-02T11:02:34.961Z,7.30
2022-08-02T11:05:08.400Z,7.10
2022-08-02T11:07:49.175Z,10.30
2022-08-02T11:10:29.092Z,6.30
2022-08-02T11:13:08.987Z,9.60
2022-08-02T11:15:50.840Z,9.40
2022-08-02T11:18:17.947Z,8.30
2022-08-02T11:20:44.889Z,8.20
2022-08-02T11:23:44.585Z,9.20
2022-08-02T11:26:30.987Z,17.70
2022-08-02T11:28:58.972Z,11.60
2022-08-02T11:31:25.938Z,15.80
2022-08-02T11:33:52.775Z,12.00
2022-08-02T11:36:19.549Z,14.10
2022-08-02T11:38:49.688Z,10.60
2022-08-02T11:41:45.878Z,7.60
2022-08-02T11:44:09.765Z,14.30
2022-08-02T11:46:37.044Z,16.70
2022-08-02T11:49:18.361Z,8.10
2022-08-02T11:52:05.444Z,9.00
2022-08-02T11:54:36.908Z,8.20
2022-08-02T11:57:13.401Z,6.80
2022-08-02T11:59:42.976Z,7.40
2022-08-02T12:02:10.257Z,6.60
2022-08-02T12:04:37.275Z,7.70
2022-08-02T12:07:05.895Z,6.70
2022-08-02T12:09:39.226Z,7.70
2022-08-02T12:12:07.788Z,8.40
2022-08-02T12:14:34.564Z,6.50
2022-08-02T12:17:19.838Z,6.40
2022-08-02T12:19:47.945Z,6.70
2022-08-02T12:22:19.401Z,16.80
2022-08-02T12:24:52.593Z,7.30
2022-08-02T12:27:36.267Z,5.60
2022-08-02T12:30:13.205Z,6.60
2022-08-02T12:35:26.468Z,7.60
2022-08-02T12:37:54.067Z,8.00
2022-08-02T12:40:25.125Z,9.10
2022-08-02T12:42:54.873Z,7.80
2022-08-02T12:45:21.675Z,7.60
2022-08-02T12:47:50.922Z,8.60
2022-08-02T12:50:21.698Z,7.90
2022-08-02T12:52:48.965Z,7.80
2022-08-02T12:55:24.233Z,9.80
2022-08-02T12:58:02.459Z,9.60
2022-08-02T13:00:31.279Z,6.10
2022-08-02T13:02:58.326Z,9.40
2022-08-02T13:05:25.528Z,9.40
2022-08-02T13:07:52.468Z,6.80
2022-08-02T13:10:19.480Z,9.70
2022-08-02T13:12:46.329Z,6.80
2022-08-02T13:15:50.144Z,6.20
2022-08-02T13:19:01.098Z,10.80
2022-08-02T13:21:40.040Z,10.50
2022-08-02T13:24:33.010Z,7.20
2022-08-02T13:26:55.648Z,6.80
2022-08-02T13:29:22.382Z,6.70
2022-08-02T13:31:49.110Z,7.40
2022-08-02T13:34:16.689Z,6.70
2022-08-02T13:36:43.543Z,8.80
2022-08-02T13:39:12.026Z,7.80
2022-08-02T13:41:38.832Z,8.80
2022-08-02T13:44:10.239Z,8.00
2022-08-02T13:46:45.225Z,7.00
2022-08-02T13:49:18.316Z,6.60
2022-08-02T13:51:46.210Z,8.80
2022-08-02T13:54:12.975Z,8.80
2022-08-02T13:56:39.718Z,7.50
2022-08-02T13:59:55.042Z,5.60
2022-08-02T14:01:54.431Z,5.30
2022-08-02T14:04:21.208Z,5.10
2022-08-02T14:06:47.985Z,8.30
2022-08-02T14:09:17.127Z,9.10
2022-08-02T14:11:45.357Z,7.40
2022-08-02T14:14:16.327Z,8.20
2022-08-02T14:16:44.403Z,10.90
2022-08-02T14:19:16.437Z,6.70
2022-08-02T14:21:46.075Z,10.40
2022-08-02T14:24:15.452Z,6.80
2022-08-02T14:26:42.428Z,7.50
2022-08-02T14:29:09.409Z,4.40
2022-08-02T14:31:41.661Z,4.80
2022-08-02T14:34:10.860Z,8.30
2022-08-02T14:36:38.357Z,13.70
2022-08-02T14:39:05.142Z,8.30
2022-08-02T14:41:54.660Z,15.10
2022-08-02T14:44:20.728Z,7.60
2022-08-02T14:46:47.596Z,7.30
2022-08-02T14:49:24.384Z,8.80
2022-08-02T14:51:56.306Z,15.30
2022-08-02T14:54:30.019Z,10.60
2022-08-02T14:56:57.871Z,10.60
2022-08-02T14:59:24.641Z,13.20
2022-08-02T15:01:51.579Z,10.00
2022-08-02T15:04:18.484Z,12.40
2022-08-02T15:06:45.233Z,7.10
2022-08-02T15:09:13.578Z,8.50
2022-08-02T15:11:47.753Z,5.00
2022-08-02T15:14:22.145Z,5.20
2022-08-02T15:16:57.685Z,5.60
2022-08-02T15:19:28.676Z,14.50
2022-08-02T15:22:13.221Z,8.00
2022-08-02T15:24:44.748Z,17.70
2022-08-02T15:27:13.959Z,5.00
2022-08-02T15:29:41.598Z,14.90
2022-08-02T15:32:08.372Z,6.60
2022-08-02T15:34:35.213Z,4.60
2022-08-02T15:37:02.130Z,8.40
2022-08-02T15:39:28.854Z,6.60
2022-08-02T15:41:55.631Z,7.50
2022-08-02T15:44:22.487Z,8.50
2022-08-02T15:46:49.194Z,6.40
2022-08-02T15:49:16.005Z,12.00
2022-08-02T15:51:42.760Z,6.60
2022-08-02T15:54:09.488Z,11.70
2022-08-02T15:56:36.220Z,9.00
2022-08-02T15:59:03.063Z,9.20
2022-08-02T16:01:37.075Z,6.00
2022-08-02T16:04:06.846Z,6.60
2022-08-02T16:06:34.654Z,6.10
2022-08-02T16:09:01.446Z,9.00
2022-08-02T16:11:28.213Z,6.80
2022-08-02T16:13:55.210Z,5.60
2022-08-02T16:16:30.425Z,10.50
2022-08-02T16:18:57.580Z,6.50
2022-08-02T16:21:24.930Z,5.80
2022-08-02T16:24:02.067Z,9.40
2022-08-02T16:26:34.114Z,6.00
2022-08-02T16:29:01.536Z,6.70
2022-08-02T16:31:28.321Z,6.80
2022-08-02T16:33:57.086Z,7.00
2022-08-02T16:36:25.038Z,9.00
2022-08-02T16:38:52.742Z,6.40
2022-08-02T16:41:19.538Z,7.00
2022-08-02T16:43:46.674Z,7.80
2022-08-02T16:46:13.518Z,6.00
2022-08-02T16:48:40.450Z,7.00
2022-08-02T16:51:13.613Z,7.30
2022-08-02T16:53:59.712Z,6.50
2022-08-02T16:56:30.411Z,6.60
2022-08-02T16:58:59.641Z,7.70
2022-08-02T17:02:03.087Z,5.30
2022-08-02T17:04:30.713Z,8.00
2022-08-02T17:06:59.953Z,6.70
2022-08-02T17:10:04.199Z,6.30
2022-08-02T17:12:16.209Z,7.20
2022-08-02T17:14:54.995Z,7.70
2022-08-02T17:17:33.635Z,7.00
2022-08-02T17:20:05.301Z,9.90
2022-08-02T17:22:32.074Z,12.60
2022-08-02T17:25:04.381Z,8.10
2022-08-02T17:27:31.137Z,7.80
2022-08-02T17:29:59.838Z,8.90
2022-08-02T17:32:29.124Z,8.50
2022-08-02T17:35:00.071Z,10.10
2022-08-02T17:37:30.628Z,8.70
2022-08-02T17:39:59.804Z,9.20
2022-08-02T17:42:26.628Z,10.30
2022-08-02T17:44:54.710Z,8.50
2022-08-02T17:47:30.820Z,11.20
2022-08-02T17:49:58.171Z,10.70
2022-08-02T17:55:14.669Z,9.70
2022-08-02T17:57:57.791Z,9.30
2022-08-02T18:00:31.379Z,8.40
2022-08-02T18:03:00.555Z,10.10
2022-08-02T18:05:39.951Z,9.30
2022-08-02T18:08:14.738Z,12.80
2022-08-02T18:10:44.218Z,9.90
2022-08-02T18:13:10.971Z,8.20
2022-08-02T18:15:38.834Z,9.60
2022-08-02T18:18:05.746Z,6.70
2022-08-02T18:20:32.973Z,7.40
2022-08-02T18:23:00.280Z,8.30
2022-08-02T18:25:37.508Z,12.10
2022-08-02T18:28:10.949Z,10.70
2022-08-02T18:30:37.726Z,9.40
2022-08-02T18:33:54.641Z,10.60
2022-08-02T18:35:52.916Z,7.60
2022-08-02T18:38:22.310Z,8.90
2022-08-02T18:40:51.094Z,9.00
2022-08-02T18:43:18.818Z,12.90
2022-08-02T18:46:06.503Z,8.30
2022-08-02T18:48:38.900Z,12.00
2022-08-02T18:51:11.111Z,12.90
2022-08-02T18:53:42.057Z,14.40
2022-08-02T18:58:59.696Z,9.00
2022-08-02T19:01:32.434Z,10.70
2022-08-02T19:04:02.057Z,11.30
2022-08-02T19:06:29.511Z,8.10
2022-08-02T19:09:10.562Z,7.00
2022-08-02T19:11:48.309Z,6.70
2022-08-02T19:14:24.178Z,6.60
2022-08-02T19:16:56.411Z,6.10
2022-08-02T19:19:29.204Z,9.20
2022-08-02T19:22:18.051Z,6.20
2022-08-02T19:24:45.884Z,8.10
2022-08-02T19:27:14.768Z,8.80
2022-08-02T19:29:50.923Z,7.70
2022-08-02T19:32:41.645Z,7.30
2022-08-02T19:35:19.488Z,8.00
2022-08-02T19:40:24.132Z,9.00
2022-08-02T19:44:24.507Z,8.50
2022-08-02T19:45:49.967Z,11.20
2022-08-02T19:48:23.533Z,10.60
2022-08-02T19:50:55.829Z,9.10
2022-08-02T19:53:46.995Z,11.50
2022-08-02T19:56:21.015Z,9.50
2022-08-02T19:58:52.118Z,9.40
2022-08-02T20:01:25.301Z,9.80
2022-08-02T20:03:54.820Z,9.50
2022-08-02T20:06:29.280Z,8.70
2022-08-02T20:08:59.362Z,10.60
2022-08-02T20:11:34.778Z,9.00
2022-08-02T20:14:04.114Z,9.90
2022-08-02T20:19:18.594Z,11.20
2022-08-02T20:21:55.463Z,12.40
2022-08-02T20:24:26.515Z,12.70
2022-08-02T20:26:53.952Z,10.10
2022-08-02T20:29:43.145Z,9.00
2022-08-02T20:32:07.893Z,14.50
2022-08-02T20:34:36.309Z,8.50
2022-08-02T20:37:59.883Z,8.00
2022-08-02T20:39:51.476Z,7.80
2022-08-02T20:42:23.089Z,9.50
2022-08-02T20:44:54.111Z,13.10
2022-08-02T20:47:27.631Z,8.20
2022-08-02T20:50:14.221Z,9.50
2022-08-02T20:52:42.372Z,12.20
2022-08-02T20:55:17.111Z,8.80
2022-08-02T20:58:00.467Z,10.70
2022-08-02T21:00:28.306Z,12.00
2022-08-02T21:02:55.607Z,8.60
2022-08-02T21:05:43.822Z,8.40
2022-08-02T21:08:14.065Z,9.00
2022-08-02T21:10:43.462Z,7.90
2022-08-02T21:15:58.862Z,11.20
2022-08-02T21:21:18.882Z,8.10
2022-08-02T21:23:48.760Z,11.30
2022-08-02T21:26:27.881Z,8.70
2022-08-02T21:28:56.005Z,8.50
2022-08-02T21:31:22.740Z,8.90
2022-08-02T21:33:57.500Z,12.40
2022-08-02T21:36:34.817Z,7.90
2022-08-02T21:39:04.490Z,10.10
2022-08-02T21:41:39.773Z,9.00
2022-08-02T21:44:17.709Z,8.50
2022-08-02T21:46:49.262Z,8.50
2022-08-02T21:49:17.784Z,7.00
2022-08-02T21:51:49.362Z,8.20
2022-08-02T21:54:21.173Z,10.30
2022-08-02T21:56:49.872Z,8.70
2022-08-02T21:59:17.479Z,10.40
2022-08-02T22:01:53.179Z,12.40
2022-08-02T22:04:21.631Z,12.30
2022-08-02T22:06:48.840Z,9.60
2022-08-02T22:09:42.092Z,8.70
2022-08-02T22:12:04.788Z,10.30
2022-08-02T22:14:36.491Z,8.00
2022-08-02T22:17:08.673Z,8.40
2022-08-02T22:19:36.235Z,8.70
2022-08-02T22:22:03.005Z,14.80
2022-08-02T22:24:30.490Z,7.20
2022-08-02T22:26:57.585Z,11.00
2022-08-02T22:29:24.491Z,11.50
2022-08-02T22:31:52.212Z,8.90
2022-08-02T22:34:26.605Z,8.30
2022-08-02T22:37:05.941Z,17.40
2022-08-02T22:40:08.955Z,10.60
2022-08-02T22:42:36.667Z,9.80
2022-08-02T22:45:09.294Z,8.40
2022-08-02T22:47:38.857Z,9.90
2022-08-02T22:50:17.826Z,8.80
2022-08-02T22:52:50.155Z,8.20
2022-08-02T22:55:18.044Z,8.40
2022-08-02T22:57:56.365Z,9.40
2022-08-02T22:58:46.034Z,10.40
2022-08-02T22:58:48.781Z,10.30
2022-08-02T22:58:55.199Z,9.70
2022-08-02T22:59:02.073Z,9.80
2022-08-02T22:59:11.719Z,10.70
2022-08-02T23:00:24.632Z,10.10
2022-08-02T23:02:51.401Z,9.80
2022-08-02T23:05:18.215Z,7.80
2022-08-02T23:07:44.956Z,8.00
2022-08-02T23:10:11.727Z,10.80
2022-08-02T23:12:38.461Z,8.50
2022-08-02T23:15:05.643Z,14.50
2022-08-02T23:17:52.949Z,8.20
2022-08-02T23:22:46.513Z,9.30
2022-08-02T23:25:14.470Z,9.40
2022-08-02T23:27:50.215Z,8.00
2022-08-02T23:30:17.679Z,7.70
2022-08-02T23:32:44.411Z,8.90
2022-08-02T23:35:17.226Z,8.80
2022-08-02T23:37:58.387Z,9.10
2022-08-02T23:40:39.726Z,9.50
2022-08-02T23:43:14.889Z,8.00
2022-08-02T23:45:44.230Z,9.30
2022-08-02T23:48:10.958Z,9.80
2022-08-02T23:50:37.806Z,10.60
2022-08-02T23:53:04.556Z,9.20
2022-08-02T23:55:31.406Z,9.20
2022-08-02T23:57:58.118Z,9.60
